Time;durP1;ratioP1;P1;durP2;ratioP2;P2;SDS_P1;SDS_P2;PMS_P1;PMS_P2;Temp;Humidity;BMP_temperature;BMP_pressure;BME280_temperature;BME280_humidity;BME280_pressure;Samples;Min_cycle;Max_cycle;Signal;HPM_P1;HPM_P2
2020/12/25 00:02:03;;;;;;;2.13;1.20;;;17.90;59.80;;;;;;5001555;28;20203;-55
2020/12/25 00:04:30;;;;;;;2.53;1.20;;;17.90;59.80;;;;;;4995656;28;20216;-55
2020/12/25 00:06:56;;;;;;;1.63;1.10;;;17.90;59.80;;;;;;5002926;28;20212;-55
2020/12/25 00:09:23;;;;;;;2.37;0.97;;;17.90;59.90;;;;;;4995169;28;20227;-56
2020/12/25 00:11:49;;;;;;;2.27;1.10;;;17.90;59.90;;;;;;5002920;28;20203;-55
2020/12/25 00:14:15;;;;;;;4.57;1.20;;;17.90;59.90;;;;;;4999755;28;20206;-55
2020/12/25 00:16:41;;;;;;;2.67;1.17;;;17.90;59.90;;;;;;5004673;28;20208;-55
2020/12/25 00:19:08;;;;;;;3.60;1.10;;;17.90;60.00;;;;;;5002379;28;20196;-55
2020/12/25 00:21:37;;;;;;;3.47;1.23;;;17.90;60.00;;;;;;5001756;28;20311;-55
2020/12/25 00:24:06;;;;;;;1.50;0.90;;;17.80;59.90;;;;;;5004508;28;20210;-55
2020/12/25 00:26:33;;;;;;;2.83;1.00;;;17.80;60.00;;;;;;4995647;28;20625;-55
2020/12/25 00:29:01;;;;;;;2.93;0.97;;;17.80;60.00;;;;;;5007825;28;20199;-55
2020/12/25 00:31:32;;;;;;;1.67;0.93;;;17.80;60.00;;;;;;4995585;28;20207;-55
2020/12/25 00:34:00;;;;;;;3.67;1.10;;;17.80;60.00;;;;;;5006315;28;20927;-55
2020/12/25 00:36:46;;;;;;;2.10;0.93;;;17.80;60.00;;;;;;4993925;28;20215;-55
2020/12/25 00:39:17;;;;;;;2.37;0.93;;;17.80;60.00;;;;;;5005337;28;20214;-55
2020/12/25 00:41:50;;;;;;;1.97;0.80;;;17.80;60.10;;;;;;4996158;28;20210;-55
2020/12/25 00:44:17;;;;;;;4.50;1.10;;;17.70;60.00;;;;;;5007501;28;20210;-55
2020/12/25 00:46:45;;;;;;;2.10;1.03;;;17.70;59.90;;;;;;5002227;28;20215;-55
2020/12/25 00:49:11;;;;;;;3.07;1.17;;;17.70;59.90;;;;;;5010290;28;20203;-55
2020/12/25 00:51:37;;;;;;;2.63;1.17;;;17.70;60.00;;;;;;5000359;28;20203;-55
2020/12/25 00:54:04;;;;;;;2.93;1.03;;;17.70;59.90;;;;;;5009773;28;20191;-55
2020/12/25 00:56:30;;;;;;;4.30;1.23;;;17.70;60.00;;;;;;5001010;28;20250;-55
2020/12/25 00:59:01;;;;;;;2.20;1.00;;;17.70;60.00;;;;;;5008122;28;20188;-55
2020/12/25 01:01:28;;;;;;;2.50;1.30;;;17.60;60.00;;;;;;5001283;28;20192;-55
2020/12/25 01:04:11;;;;;;;3.83;1.10;;;17.70;60.10;;;;;;5008543;28;20192;-55
2020/12/25 01:06:37;;;;;;;3.57;0.80;;;17.60;60.00;;;;;;5002177;28;20207;-55
2020/12/25 01:09:03;;;;;;;1.93;1.00;;;17.60;59.90;;;;;;5007248;28;20218;-55
2020/12/25 01:11:29;;;;;;;3.37;1.20;;;17.60;59.90;;;;;;5001993;28;20208;-55
2020/12/25 01:13:56;;;;;;;2.00;0.83;;;17.60;59.90;;;;;;5009017;28;20204;-55
2020/12/25 01:16:22;;;;;;;2.00;1.10;;;17.60;59.90;;;;;;5010483;28;20227;-55
2020/12/25 01:18:49;;;;;;;3.77;1.03;;;17.60;59.90;;;;;;5000565;28;20206;-55
2020/12/25 01:21:16;;;;;;;2.67;1.03;;;17.60;59.90;;;;;;5009364;28;20204;-56
2020/12/25 01:23:43;;;;;;;4.17;1.20;;;17.60;59.90;;;;;;5001094;28;20215;-55
2020/12/25 01:26:11;;;;;;;2.83;1.20;;;17.50;59.90;;;;;;5009393;28;20218;-55
2020/12/25 01:28:37;;;;;;;3.03;1.00;;;17.50;59.90;;;;;;5000366;28;20207;-55
2020/12/25 01:31:05;;;;;;;2.87;1.30;;;17.50;59.90;;;;;;5010328;28;20262;-55
2020/12/25 01:33:32;;;;;;;2.00;1.10;;;17.50;60.00;;;;;;5000620;28;20208;-55
2020/12/25 01:35:59;;;;;;;2.07;0.83;;;17.50;59.90;;;;;;5010777;28;20222;-55
2020/12/25 01:38:25;;;;;;;1.67;0.73;;;17.50;59.90;;;;;;4998461;28;20212;-55
2020/12/25 01:40:52;;;;;;;2.87;1.20;;;17.50;59.90;;;;;;5009457;28;20215;-54
2020/12/25 01:43:22;;;;;;;2.33;1.03;;;17.50;60.50;;;;;;5000171;28;20203;-55
2020/12/25 01:45:48;;;;;;;3.13;1.20;;;17.40;60.00;;;;;;5010255;28;20680;-54
2020/12/25 01:48:15;;;;;;;1.60;0.90;;;17.40;60.10;;;;;;4999893;28;20222;-55
2020/12/25 01:50:42;;;;;;;2.43;1.10;;;17.40;60.00;;;;;;5010461;28;20540;-55
2020/12/25 01:53:10;;;;;;;1.23;0.80;;;17.40;60.00;;;;;;4999109;28;20448;-54
2020/12/25 01:55:38;;;;;;;2.77;1.03;;;17.40;60.00;;;;;;5009218;28;20775;-55
2020/12/25 01:58:06;;;;;;;2.27;0.90;;;17.40;60.10;;;;;;5006122;28;20641;-55
2020/12/25 02:00:33;;;;;;;2.47;1.00;;;17.40;60.20;;;;;;4997667;28;20207;-55
2020/12/25 02:02:59;;;;;;;2.97;0.90;;;17.40;60.20;;;;;;5005655;28;20212;-54
2020/12/25 02:05:26;;;;;;;1.70;0.70;;;17.40;60.10;;;;;;5001875;28;20540;-56
2020/12/25 02:07:55;;;;;;;1.07;0.90;;;17.40;60.10;;;;;;5006484;28;20223;-55
2020/12/25 02:10:22;;;;;;;1.47;0.80;;;17.40;60.20;;;;;;4995112;28;20237;-55
2020/12/25 02:12:50;;;;;;;2.00;0.90;;;17.30;60.20;;;;;;5004465;28;20208;-55
2020/12/25 02:15:16;;;;;;;2.10;0.90;;;17.40;60.30;;;;;;5000388;28;20200;-56
2020/12/25 02:17:44;;;;;;;2.50;1.17;;;17.40;60.30;;;;;;5005349;28;20565;-55
2020/12/25 02:20:12;;;;;;;1.53;0.90;;;17.40;60.30;;;;;;5000367;28;20208;-55
2020/12/25 02:22:38;;;;;;;1.40;0.80;;;17.30;60.30;;;;;;5006916;28;20229;-56
2020/12/25 02:25:05;;;;;;;2.40;0.87;;;17.40;60.30;;;;;;5001493;28;20210;-55
2020/12/25 02:27:32;;;;;;;2.30;1.00;;;17.30;60.20;;;;;;5005660;28;20566;-55
2020/12/25 02:29:58;;;;;;;1.80;1.10;;;17.30;60.20;;;;;;4999605;28;20231;-55
2020/12/25 02:32:24;;;;;;;2.73;1.20;;;17.30;60.20;;;;;;5005587;28;20203;-55
2020/12/25 02:35:04;;;;;;;1.90;0.90;;;17.30;60.30;;;;;;5000606;28;20234;-55
2020/12/25 02:37:31;;;;;;;1.60;0.87;;;17.30;60.20;;;;;;5002731;28;20203;-55
2020/12/25 02:39:57;;;;;;;2.13;0.80;;;17.30;60.20;;;;;;5005560;28;20196;-55
2020/12/25 02:42:24;;;;;;;2.67;1.00;;;17.30;60.10;;;;;;5002986;28;20203;-55
2020/12/25 02:44:50;;;;;;;1.07;0.83;;;17.30;60.10;;;;;;5004643;28;20211;-55
2020/12/25 02:47:16;;;;;;;1.77;1.00;;;17.30;60.10;;;;;;4999179;28;20192;-54
2020/12/25 02:49:55;;;;;;;1.73;0.67;;;17.30;60.20;;;;;;5008927;28;20204;-55
2020/12/25 02:52:21;;;;;;;2.30;0.87;;;17.20;60.10;;;;;;4999153;28;20204;-55
2020/12/25 02:54:47;;;;;;;2.27;0.90;;;17.20;60.10;;;;;;5003665;28;20199;-55
2020/12/25 02:57:14;;;;;;;1.43;0.70;;;17.20;60.10;;;;;;4997729;28;20755;-55
2020/12/25 02:59:40;;;;;;;1.80;0.80;;;17.20;60.20;;;;;;5009273;28;20203;-55
2020/12/25 03:02:06;;;;;;;2.27;1.00;;;17.20;60.10;;;;;;4998302;28;20220;-55
2020/12/25 03:04:32;;;;;;;1.30;0.70;;;17.20;60.20;;;;;;5009027;28;20200;-55
2020/12/25 03:06:59;;;;;;;1.50;0.80;;;17.20;60.20;;;;;;4997588;28;20212;-57
2020/12/25 03:09:25;;;;;;;3.00;0.70;;;17.20;60.10;;;;;;5009051;28;20199;-57
2020/12/25 03:11:51;;;;;;;2.27;0.87;;;17.20;60.10;;;;;;4998588;28;20779;-54
2020/12/25 03:14:17;;;;;;;2.30;0.80;;;17.20;60.10;;;;;;5009081;28;20200;-57
2020/12/25 03:16:44;;;;;;;1.83;0.83;;;17.20;60.10;;;;;;4996545;28;20716;-57
2020/12/25 03:19:10;;;;;;;1.83;0.97;;;17.20;60.10;;;;;;5008657;28;20329;-57
2020/12/25 03:21:37;;;;;;;1.40;0.77;;;17.20;60.20;;;;;;5003124;28;20219;-57
2020/12/25 03:24:03;;;;;;;2.27;0.80;;;17.20;60.10;;;;;;4999404;28;20215;-56
2020/12/25 03:26:29;;;;;;;3.00;0.80;;;17.10;60.10;;;;;;5004575;28;20716;-57
2020/12/25 03:28:55;;;;;;;1.13;0.63;;;17.10;60.10;;;;;;4999182;28;20200;-57
2020/12/25 03:31:21;;;;;;;1.83;0.70;;;17.10;60.20;;;;;;5005476;28;20224;-54
2020/12/25 03:33:48;;;;;;;1.97;0.67;;;17.10;60.20;;;;;;5000674;28;20196;-56
2020/12/25 03:36:14;;;;;;;3.57;0.70;;;17.10;60.20;;;;;;5005120;28;20210;-57
2020/12/25 03:38:40;;;;;;;1.60;0.60;;;17.10;60.20;;;;;;5000690;28;20215;-56
2020/12/25 03:41:07;;;;;;;3.30;0.90;;;17.10;60.20;;;;;;5006007;28;20207;-56
2020/12/25 03:43:34;;;;;;;1.30;0.60;;;17.10;60.20;;;;;;5000067;28;20204;-56
2020/12/25 03:46:00;;;;;;;1.97;0.70;;;17.10;60.30;;;;;;5002398;28;20755;-56
2020/12/25 03:48:28;;;;;;;1.43;0.63;;;17.10;60.20;;;;;;4998553;28;20218;-56
2020/12/25 03:50:56;;;;;;;1.57;0.53;;;17.10;60.10;;;;;;5003050;28;20231;-56
2020/12/25 03:53:22;;;;;;;1.73;0.40;;;17.10;60.20;;;;;;4988376;28;23761;-56
2020/12/25 03:55:48;;;;;;;1.43;0.90;;;17.10;60.20;;;;;;5002882;28;20239;-56
2020/12/25 03:58:14;;;;;;;2.13;0.70;;;17.00;60.20;;;;;;5003868;28;20200;-56
2020/12/25 04:00:41;;;;;;;0.80;0.57;;;17.00;60.20;;;;;;5001378;28;20199;-56
2020/12/25 04:03:07;;;;;;;2.07;0.60;;;17.00;60.20;;;;;;5008122;28;20207;-56
2020/12/25 04:05:33;;;;;;;0.90;0.60;;;17.00;60.30;;;;;;4995853;28;20204;-56
2020/12/25 04:07:59;;;;;;;1.10;0.67;;;17.00;60.30;;;;;;5011954;28;20293;-56
2020/12/25 04:10:26;;;;;;;1.03;0.60;;;17.00;60.30;;;;;;4996088;28;20223;-56
2020/12/25 04:12:52;;;;;;;1.40;0.90;;;17.00;60.20;;;;;;5008397;28;20508;-56
2020/12/25 04:15:18;;;;;;;1.80;0.70;;;17.00;60.20;;;;;;4995196;28;20200;-56
2020/12/25 04:17:44;;;;;;;1.17;0.60;;;17.00;60.30;;;;;;5008070;28;20199;-56
2020/12/25 04:20:11;;;;;;;3.10;0.77;;;17.00;60.30;;;;;;4995004;28;20594;-56
2020/12/25 04:22:37;;;;;;;1.10;0.70;;;17.00;60.30;;;;;;5006478;28;20203;-56
2020/12/25 04:25:04;;;;;;;1.70;0.90;;;17.00;60.30;;;;;;4996625;28;20226;-56
2020/12/25 04:27:30;;;;;;;1.90;0.60;;;17.00;60.30;;;;;;5008478;28;20214;-56
2020/12/25 04:29:56;;;;;;;3.03;0.77;;;17.00;60.40;;;;;;4998204;28;20301;-56
2020/12/25 04:32:25;;;;;;;2.07;0.90;;;17.00;60.30;;;;;;5006929;28;20203;-57
2020/12/25 04:34:51;;;;;;;1.23;0.53;;;17.00;60.30;;;;;;4995691;28;20560;-56
2020/12/25 04:37:18;;;;;;;1.43;0.87;;;17.00;60.40;;;;;;5005356;28;20200;-56
2020/12/25 04:39:45;;;;;;;1.73;0.60;;;17.00;60.40;;;;;;5002499;28;20195;-56
2020/12/25 04:42:11;;;;;;;2.43;0.80;;;17.00;60.40;;;;;;4993147;28;20561;-56
2020/12/25 04:44:37;;;;;;;2.30;0.77;;;17.00;60.40;;;;;;5005305;28;20211;-56
2020/12/25 04:47:11;;;;;;;1.33;0.80;;;16.90;60.70;;;;;;4994892;28;20809;-56
2020/12/25 04:49:38;;;;;;;1.53;0.70;;;17.00;60.40;;;;;;5003565;28;20199;-56
2020/12/25 04:52:05;;;;;;;1.50;0.77;;;16.90;60.40;;;;;;4999703;28;20206;-56
2020/12/25 04:54:32;;;;;;;1.20;0.50;;;16.90;60.50;;;;;;4987857;28;20614;-56
2020/12/25 04:56:59;;;;;;;1.87;0.60;;;17.00;60.50;;;;;;4998001;28;20236;-56
2020/12/25 04:59:29;;;;;;;1.40;0.53;;;17.00;60.50;;;;;;5002662;28;20212;-56
2020/12/25 05:01:56;;;;;;;1.30;0.47;;;17.00;60.50;;;;;;4999601;28;20223;-56
2020/12/25 05:04:24;;;;;;;0.97;0.60;;;17.00;60.50;;;;;;5004824;28;20195;-56
2020/12/25 05:06:51;;;;;;;2.03;0.80;;;16.90;60.50;;;;;;4999729;28;20199;-56
2020/12/25 05:09:24;;;;;;;1.47;0.70;;;16.90;60.60;;;;;;5003391;28;20201;-56
2020/12/25 05:11:55;;;;;;;0.77;0.50;;;16.90;60.50;;;;;;4998962;28;20744;-56
2020/12/25 05:14:26;;;;;;;1.10;0.40;;;16.90;60.60;;;;;;5003475;28;20216;-56
2020/12/25 05:16:57;;;;;;;2.27;0.70;;;17.00;60.60;;;;;;4985080;28;20202;-56
2020/12/25 05:19:26;;;;;;;2.73;0.80;;;17.00;60.60;;;;;;5004611;28;20206;-56
2020/12/25 05:21:59;;;;;;;1.17;0.70;;;16.90;60.60;;;;;;4999237;28;20577;-56
2020/12/25 05:24:26;;;;;;;2.47;0.80;;;16.90;60.70;;;;;;5003773;28;20208;-56
2020/12/25 05:26:56;;;;;;;1.17;0.50;;;16.90;60.70;;;;;;5006064;28;20222;-55
2020/12/25 05:29:24;;;;;;;3.17;0.70;;;16.90;60.80;;;;;;5002871;28;20565;-56
2020/12/25 05:31:52;;;;;;;1.47;0.67;;;16.90;60.60;;;;;;5008936;28;20199;-56
2020/12/25 05:34:20;;;;;;;1.27;0.70;;;16.90;60.70;;;;;;5000962;28;20206;-56
2020/12/25 05:37:05;;;;;;;2.50;0.70;;;16.90;60.70;;;;;;5010131;28;20187;-56
2020/12/25 05:39:36;;;;;;;1.13;0.50;;;16.90;60.60;;;;;;5000236;28;20230;-56
2020/12/25 05:42:05;;;;;;;1.23;0.40;;;16.90;60.70;;;;;;5010244;28;20192;-56
2020/12/25 05:44:47;;;;;;;2.70;0.70;;;16.90;60.60;;;;;;4997994;28;20206;-56
2020/12/25 05:47:15;;;;;;;1.33;0.70;;;16.90;60.60;;;;;;5003214;28;20217;-56
2020/12/25 05:49:42;;;;;;;0.93;0.40;;;16.90;60.60;;;;;;4999283;28;20200;-56
2020/12/25 05:52:09;;;;;;;2.10;0.70;;;16.90;60.60;;;;;;5003410;28;20211;-56
2020/12/25 05:54:36;;;;;;;0.83;0.50;;;16.90;60.50;;;;;;4999068;28;20200;-56
2020/12/25 05:57:06;;;;;;;2.40;0.50;;;16.90;60.50;;;;;;5009731;28;20242;-56
2020/12/25 05:59:33;;;;;;;0.90;0.53;;;16.90;60.50;;;;;;4999516;28;20200;-56
2020/12/25 06:02:02;;;;;;;1.27;0.40;;;16.90;60.50;;;;;;5009912;28;20974;-56
2020/12/25 06:04:32;;;;;;;1.13;0.50;;;16.90;60.40;;;;;;4999318;28;20204;-56
2020/12/25 06:06:59;;;;;;;0.77;0.50;;;16.90;60.40;;;;;;5009875;28;20215;-54
2020/12/25 06:09:33;;;;;;;0.93;0.40;;;16.90;60.40;;;;;;4997629;28;20200;-56
2020/12/25 06:12:00;;;;;;;1.60;0.50;;;16.90;60.40;;;;;;5006413;28;20227;-55
2020/12/25 06:14:27;;;;;;;1.30;0.57;;;16.90;60.30;;;;;;4999703;28;20207;-56
2020/12/25 06:16:59;;;;;;;1.77;0.57;;;16.90;60.20;;;;;;5009316;28;20196;-56
2020/12/25 06:19:43;;;;;;;1.03;0.37;;;16.80;60.20;;;;;;4996631;28;20680;-56
2020/12/25 06:22:27;;;;;;;0.80;0.50;;;16.90;60.20;;;;;;5005041;28;20588;-56
2020/12/25 06:24:56;;;;;;;1.67;0.43;;;16.80;60.10;;;;;;4999125;28;20282;-56
2020/12/25 06:27:27;;;;;;;0.90;0.30;;;16.80;60.00;;;;;;5007423;28;20211;-56
2020/12/25 06:29:56;;;;;;;1.07;0.40;;;16.80;60.00;;;;;;4999577;28;20597;-55
2020/12/25 06:32:23;;;;;;;1.00;0.50;;;16.80;60.00;;;;;;5003582;28;20207;-54
2020/12/25 06:34:53;;;;;;;1.33;0.30;;;16.90;60.00;;;;;;4998365;28;20200;-54
2020/12/25 06:37:19;;;;;;;1.53;0.60;;;16.80;59.90;;;;;;5002195;28;20211;-54
2020/12/25 06:39:50;;;;;;;1.07;0.40;;;16.80;59.90;;;;;;5003367;28;20200;-54
2020/12/25 06:42:33;;;;;;;0.33;0.30;;;16.80;59.90;;;;;;4999761;28;20211;-55
2020/12/25 06:45:01;;;;;;;1.87;0.67;;;16.80;59.90;;;;;;5003991;28;20219;-54
2020/12/25 06:47:35;;;;;;;1.87;0.50;;;16.80;59.80;;;;;;4999526;28;20195;-55
2020/12/25 06:50:10;;;;;;;1.07;0.47;;;16.80;59.70;;;;;;5008208;28;20238;-55
2020/12/25 06:52:56;;;;;;;0.93;0.53;;;16.80;59.80;;;;;;4998893;28;20222;-55
2020/12/25 06:55:39;;;;;;;0.67;0.40;;;16.80;59.70;;;;;;5009040;28;20254;-55
2020/12/25 06:58:06;;;;;;;2.30;0.50;;;16.80;59.70;;;;;;5003174;28;20289;-55
2020/12/25 07:00:32;;;;;;;1.27;0.60;;;16.80;59.60;;;;;;5008270;28;20191;-55
2020/12/25 07:03:10;;;;;;;0.80;0.43;;;16.80;59.60;;;;;;4998086;28;20210;-55
2020/12/25 07:05:47;;;;;;;1.80;0.50;;;16.80;59.50;;;;;;5008625;28;20211;-55
2020/12/25 07:08:50;;;;;;;1.80;0.50;;;16.80;59.50;;;;;;4995843;28;20262;-55
2020/12/25 07:11:18;;;;;;;0.50;0.40;;;16.80;60.10;;;;;;4960487;28;20268;-55
2020/12/25 07:13:45;;;;;;;1.23;0.50;;;16.80;59.50;;;;;;5004316;28;20310;-55
2020/12/25 07:16:11;;;;;;;1.00;0.43;;;16.80;59.40;;;;;;5008455;28;20202;-55
2020/12/25 07:18:38;;;;;;;1.00;0.50;;;16.80;59.40;;;;;;4996941;28;20691;-55
2020/12/25 07:21:09;;;;;;;1.67;0.50;;;16.80;59.30;;;;;;5000947;28;20216;-55
2020/12/25 07:23:42;;;;;;;2.27;0.87;;;16.70;59.20;;;;;;4994428;28;20238;-54
2020/12/25 07:26:10;;;;;;;0.73;0.40;;;16.80;59.30;;;;;;5004001;28;20246;-55
2020/12/25 07:28:37;;;;;;;3.10;0.97;;;16.80;59.20;;;;;;4996653;28;20211;-56
2020/12/25 07:31:04;;;;;;;7.97;3.83;;;16.90;59.50;;;;;;5015564;28;20191;-55
2020/12/25 07:33:30;;;;;;;5.70;2.87;;;16.90;60.00;;;;;;4997356;28;20655;-58
2020/12/25 07:36:08;;;;;;;8.17;2.70;;;16.90;60.00;;;;;;5007790;28;20268;-55
2020/12/25 07:38:35;;;;;;;3.97;2.07;;;16.90;59.90;;;;;;4998739;28;20199;-54
2020/12/25 07:41:01;;;;;;;3.43;1.83;;;17.00;59.70;;;;;;5008362;28;20200;-54
2020/12/25 07:43:27;;;;;;;4.43;1.40;;;17.10;59.50;;;;;;4997121;28;20200;-54
2020/12/25 07:45:56;;;;;;;2.07;1.23;;;17.10;59.00;;;;;;5007976;28;20640;-54
2020/12/25 07:48:22;;;;;;;1.57;1.10;;;17.20;59.00;;;;;;4996898;28;20196;-54
2020/12/25 07:50:49;;;;;;;2.50;1.20;;;17.20;58.70;;;;;;5005386;28;20219;-54
2020/12/25 07:53:17;;;;;;;2.43;1.03;;;17.20;59.20;;;;;;4996622;28;20211;-54
2020/12/25 07:55:49;;;;;;;1.60;1.00;;;17.30;58.50;;;;;;5005635;28;20332;-54
2020/12/25 07:58:17;;;;;;;2.70;1.17;;;17.30;58.40;;;;;;4997550;28;20191;-52
2020/12/25 08:00:44;;;;;;;6.70;1.27;;;17.30;58.30;;;;;;4998339;28;20203;-55
2020/12/25 08:03:11;;;;;;;1.70;0.60;;;17.40;58.40;;;;;;5002447;28;20203;-55
2020/12/25 08:05:38;;;;;;;0.83;0.80;;;17.40;58.10;;;;;;4998167;28;20196;-54
2020/12/25 08:08:05;;;;;;;2.40;0.90;;;17.40;58.00;;;;;;5003102;28;20215;-54
2020/12/25 08:10:35;;;;;;;1.80;0.70;;;17.40;57.80;;;;;;4998366;28;20223;-55
2020/12/25 08:13:08;;;;;;;2.07;0.70;;;17.40;57.80;;;;;;5001023;28;20565;-54
2020/12/25 08:15:35;;;;;;;3.60;0.80;;;17.30;57.80;;;;;;4997072;28;20215;-55
2020/12/25 08:18:04;;;;;;;1.80;0.73;;;17.30;57.90;;;;;;5003703;28;20211;-55
2020/12/25 08:20:32;;;;;;;4.83;0.70;;;17.30;57.90;;;;;;4998296;28;20648;-54
2020/12/25 08:23:03;;;;;;;3.47;0.80;;;17.30;58.10;;;;;;5006530;28;21215;-54
2020/12/25 08:25:31;;;;;;;2.80;0.63;;;17.20;58.00;;;;;;4998228;28;20644;-55
2020/12/25 08:27:58;;;;;;;3.13;0.87;;;17.20;57.90;;;;;;5003799;28;20203;-54
2020/12/25 08:30:26;;;;;;;1.73;0.87;;;17.20;57.90;;;;;;4998818;28;20215;-55
2020/12/25 08:32:59;;;;;;;3.57;0.77;;;17.20;58.50;;;;;;5003333;28;20242;-54
2020/12/25 08:35:28;;;;;;;2.90;0.80;;;17.20;58.00;;;;;;4998065;28;20222;-55
2020/12/25 08:38:02;;;;;;;1.53;0.70;;;17.10;58.00;;;;;;5002077;28;20202;-54
2020/12/25 08:40:39;;;;;;;2.17;0.57;;;17.10;58.70;;;;;;4996499;28;20285;-55
2020/12/25 08:43:13;;;;;;;2.80;1.00;;;17.10;58.10;;;;;;5002850;28;20200;-54
2020/12/25 08:45:54;;;;;;;2.53;0.80;;;17.10;58.10;;;;;;4999216;28;20206;-54
2020/12/25 08:48:22;;;;;;;5.70;0.90;;;17.10;58.10;;;;;;5003320;28;20211;-55
2020/12/25 08:50:49;;;;;;;3.27;1.13;;;17.10;58.10;;;;;;4999305;28;20224;-55
2020/12/25 08:53:18;;;;;;;2.37;1.13;;;17.00;58.00;;;;;;5005919;28;20675;-55
2020/12/25 08:55:46;;;;;;;3.97;1.17;;;17.00;58.00;;;;;;4999938;28;20231;-54
2020/12/25 08:58:17;;;;;;;3.40;0.90;;;17.00;57.90;;;;;;5004338;28;20200;-54
2020/12/25 09:00:55;;;;;;;2.77;1.20;;;17.00;57.90;;;;;;5007286;28;20219;-55
2020/12/25 09:03:21;;;;;;;1.63;0.80;;;17.00;57.90;;;;;;5004318;28;20210;-54
2020/12/25 09:05:47;;;;;;;3.33;1.00;;;17.00;57.80;;;;;;5005632;28;20211;-54
2020/12/25 09:08:13;;;;;;;5.90;1.27;;;17.00;57.80;;;;;;4996531;28;20222;-56
2020/12/25 09:10:40;;;;;;;3.00;1.07;;;17.00;58.50;;;;;;5008560;28;20234;-56
2020/12/25 09:13:06;;;;;;;4.40;1.07;;;17.10;58.10;;;;;;5001063;28;20783;-55
2020/12/25 09:15:32;;;;;;;2.90;1.10;;;17.20;57.90;;;;;;5009084;28;20287;-56
2020/12/25 09:17:58;;;;;;;2.93;1.30;;;17.20;57.80;;;;;;4999215;28;20206;-55
2020/12/25 09:20:26;;;;;;;3.87;1.10;;;17.20;58.30;;;;;;5011442;28;20212;-56
2020/12/25 09:22:52;;;;;;;4.57;1.27;;;17.30;57.60;;;;;;4997631;28;20211;-57
2020/12/25 09:25:18;;;;;;;4.73;1.03;;;17.30;57.60;;;;;;5009863;28;20213;-55
2020/12/25 09:27:44;;;;;;;4.77;0.97;;;17.30;57.80;;;;;;4999347;28;20196;-56
2020/12/25 09:30:13;;;;;;;3.27;1.10;;;17.40;57.90;;;;;;5005170;28;20212;-55
2020/12/25 09:32:39;;;;;;;1.57;0.93;;;17.40;57.70;;;;;;5000889;28;20218;-55
2020/12/25 09:35:06;;;;;;;27.47;5.17;;;17.50;57.60;;;;;;4989905;28;20203;-56
2020/12/25 09:37:32;;;;;;;29.40;6.77;;;17.50;58.70;;;;;;4999700;28;20204;-56
2020/12/25 09:39:58;;;;;;;25.77;6.60;;;17.50;59.80;;;;;;5005748;28;20205;-55
2020/12/25 09:42:24;;;;;;;24.10;6.57;;;17.60;59.40;;;;;;5003694;28;21146;-56
2020/12/25 09:44:51;;;;;;;25.63;5.43;;;17.70;59.20;;;;;;4999123;28;20207;-54
2020/12/25 09:47:18;;;;;;;17.30;5.20;;;17.70;58.80;;;;;;5008236;28;20658;-55
2020/12/25 09:49:47;;;;;;;15.80;4.87;;;17.70;58.50;;;;;;5000804;28;20585;-56
2020/12/25 09:52:13;;;;;;;17.07;4.50;;;17.60;58.10;;;;;;5010505;28;20231;-55
2020/12/25 09:54:39;;;;;;;17.30;4.63;;;17.70;58.00;;;;;;4997663;28;20215;-56
2020/12/25 09:57:06;;;;;;;15.53;4.37;;;17.70;57.80;;;;;;5008515;28;20227;-55
2020/12/25 09:59:32;;;;;;;15.30;4.63;;;17.70;57.30;;;;;;4999026;28;20234;-55
2020/12/25 10:01:59;;;;;;;15.40;3.90;;;17.70;57.10;;;;;;4992642;28;20204;-56
2020/12/25 10:04:27;;;;;;;12.50;3.80;;;17.70;56.90;;;;;;4997710;28;20223;-56
2020/12/25 10:06:57;;;;;;;15.17;4.60;;;17.80;57.00;;;;;;5005867;28;20207;-55
2020/12/25 10:09:23;;;;;;;12.03;4.10;;;17.80;56.50;;;;;;4996292;28;20263;-55
2020/12/25 10:11:54;;;;;;;12.00;4.00;;;17.90;56.40;;;;;;5012497;28;20238;-56
2020/12/25 10:14:20;;;;;;;8.20;3.23;;;17.80;56.50;;;;;;4996959;28;20212;-55
2020/12/25 10:16:47;;;;;;;11.03;3.50;;;17.80;56.20;;;;;;5007165;28;20200;-56
2020/12/25 10:19:13;;;;;;;10.20;3.40;;;17.70;56.20;;;;;;4977533;28;20212;-55
2020/12/25 10:21:40;;;;;;;13.63;3.23;;;17.70;56.20;;;;;;5007051;28;20212;-55
2020/12/25 10:24:07;;;;;;;10.40;2.50;;;17.60;56.20;;;;;;5004987;28;20211;-55
2020/12/25 10:26:33;;;;;;;8.73;2.60;;;17.60;56.10;;;;;;4999941;28;20204;-55
2020/12/25 10:28:59;;;;;;;8.87;3.07;;;17.60;56.00;;;;;;5008498;28;20214;-55
2020/12/25 10:31:26;;;;;;;27.80;5.77;;;17.50;55.90;;;;;;4998596;28;20223;-55
2020/12/25 10:33:52;;;;;;;13.77;3.37;;;17.50;56.30;;;;;;5004733;28;20208;-55
2020/12/25 10:36:24;;;;;;;29.63;6.30;;;17.50;56.20;;;;;;4998448;28;20210;-56
2020/12/25 10:38:51;;;;;;;47.10;6.70;;;17.50;56.50;;;;;;5002902;28;20661;-56
2020/12/25 10:41:17;;;;;;;26.07;7.23;;;17.50;56.40;;;;;;5004913;28;20207;-56
2020/12/25 10:43:45;;;;;;;25.87;7.20;;;17.50;56.60;;;;;;4984649;28;20201;-55
2020/12/25 10:46:18;;;;;;;37.77;7.87;;;17.50;56.70;;;;;;5002533;28;20206;-55
2020/12/25 10:48:44;;;;;;;24.43;7.43;;;17.50;56.70;;;;;;4998869;28;20200;-55
2020/12/25 10:51:11;;;;;;;28.47;7.03;;;17.40;56.50;;;;;;5005460;28;20298;-55
2020/12/25 10:53:37;;;;;;;27.50;6.80;;;17.40;56.10;;;;;;5003496;28;20198;-55
2020/12/25 10:56:03;;;;;;;22.07;6.30;;;17.40;56.00;;;;;;4998981;28;20219;-55
2020/12/25 10:58:30;;;;;;;15.23;5.27;;;17.40;56.00;;;;;;5003482;28;20239;-55
2020/12/25 11:00:56;;;;;;;22.73;5.93;;;17.40;55.90;;;;;;4997680;28;20211;-55
2020/12/25 11:03:26;;;;;;;20.47;5.50;;;17.40;55.90;;;;;;4996143;28;20219;-55
2020/12/25 11:05:52;;;;;;;14.70;4.77;;;17.40;55.80;;;;;;4998787;28;20195;-55
2020/12/25 11:08:18;;;;;;;11.00;4.33;;;17.30;55.80;;;;;;4996301;28;20686;-56
2020/12/25 11:10:47;;;;;;;12.73;3.67;;;17.30;55.70;;;;;;5006577;28;20215;-55
2020/12/25 11:13:13;;;;;;;9.50;3.57;;;17.30;55.60;;;;;;4995125;28;20915;-55
2020/12/25 11:15:42;;;;;;;13.43;4.00;;;17.30;55.60;;;;;;4996956;28;20207;-55
2020/12/25 11:18:08;;;;;;;10.80;3.93;;;17.30;55.70;;;;;;4996802;28;20963;-55
2020/12/25 11:20:35;;;;;;;9.63;3.10;;;17.30;55.80;;;;;;5007276;28;20208;-56
2020/12/25 11:23:01;;;;;;;9.87;3.57;;;17.30;55.80;;;;;;4996730;28;20203;-55
2020/12/25 11:25:27;;;;;;;7.37;3.03;;;17.30;55.80;;;;;;5006768;28;20208;-55
2020/12/25 11:27:53;;;;;;;6.17;2.50;;;17.30;55.70;;;;;;4995867;28;20233;-55
2020/12/25 11:30:20;;;;;;;7.90;3.00;;;17.30;55.80;;;;;;5006529;28;20206;-55
2020/12/25 11:32:46;;;;;;;6.47;2.03;;;17.20;55.70;;;;;;4995422;28;20196;-56
2020/12/25 11:35:12;;;;;;;7.13;2.50;;;17.30;55.60;;;;;;5007906;28;20191;-55
2020/12/25 11:37:39;;;;;;;5.57;2.13;;;17.20;55.60;;;;;;4998703;28;20211;-55
2020/12/25 11:40:05;;;;;;;4.47;1.60;;;17.20;55.40;;;;;;5008450;28;20556;-55
2020/12/25 11:42:31;;;;;;;8.47;2.83;;;17.20;55.50;;;;;;4998754;28;20234;-55
2020/12/25 11:44:58;;;;;;;5.57;1.93;;;17.20;55.50;;;;;;5000689;28;20189;-55
2020/12/25 11:47:24;;;;;;;5.20;1.70;;;17.20;55.60;;;;;;5005720;28;20850;-55
2020/12/25 11:49:53;;;;;;;3.90;1.57;;;17.20;55.50;;;;;;5000344;28;20211;-55
2020/12/25 11:52:19;;;;;;;4.93;1.70;;;17.20;55.40;;;;;;5005367;28;20223;-55
2020/12/25 11:54:45;;;;;;;5.67;1.80;;;17.20;55.40;;;;;;4995776;28;20196;-56
2020/12/25 11:57:11;;;;;;;4.27;1.70;;;17.20;55.30;;;;;;5004469;28;20247;-55
2020/12/25 11:59:38;;;;;;;3.97;1.70;;;17.20;55.20;;;;;;5000334;28;20600;-55
2020/12/25 12:02:04;;;;;;;5.33;1.57;;;17.20;55.30;;;;;;5007230;28;20264;-55
2020/12/25 12:04:30;;;;;;;6.10;1.63;;;17.20;55.30;;;;;;4992186;28;20223;-55
2020/12/25 12:06:57;;;;;;;4.40;1.50;;;17.20;55.10;;;;;;5005279;28;20203;-55
2020/12/25 12:09:24;;;;;;;3.53;1.43;;;17.10;55.20;;;;;;4994503;28;20200;-55
2020/12/25 12:11:50;;;;;;;3.43;1.53;;;17.20;55.10;;;;;;5006573;28;20234;-55
2020/12/25 12:14:16;;;;;;;4.13;1.30;;;17.10;54.90;;;;;;4993000;28;20211;-55
2020/12/25 12:16:43;;;;;;;3.23;1.30;;;17.20;54.90;;;;;;5006948;28;20203;-55
2020/12/25 12:19:10;;;;;;;2.03;1.03;;;17.20;55.00;;;;;;4992435;28;20200;-55
2020/12/25 12:21:36;;;;;;;2.73;1.20;;;17.20;54.80;;;;;;5006620;28;20591;-54
2020/12/25 12:24:02;;;;;;;5.17;1.37;;;17.10;54.70;;;;;;5001096;28;20798;-54
2020/12/25 12:26:29;;;;;;;2.60;1.03;;;17.20;54.80;;;;;;4995804;28;20208;-54
2020/12/25 12:28:55;;;;;;;5.17;1.20;;;17.20;54.60;;;;;;5003964;28;20204;-54
2020/12/25 12:31:21;;;;;;;2.60;1.20;;;17.20;54.60;;;;;;4995590;28;20560;-53
2020/12/25 12:33:48;;;;;;;2.50;1.07;;;17.20;54.40;;;;;;5005018;28;20206;-54
2020/12/25 12:36:14;;;;;;;3.77;1.20;;;17.10;54.50;;;;;;4997655;28;20782;-54
2020/12/25 12:38:41;;;;;;;2.67;1.10;;;17.10;54.60;;;;;;4997492;28;20267;-54
2020/12/25 12:41:07;;;;;;;3.93;1.20;;;17.10;54.50;;;;;;4976167;28;20677;-54
2020/12/25 12:43:34;;;;;;;2.30;1.30;;;17.10;54.60;;;;;;4991919;28;20199;-54
2020/12/25 12:46:00;;;;;;;4.97;1.37;;;17.10;54.70;;;;;;4978513;28;20223;-54
2020/12/25 12:48:26;;;;;;;3.03;1.10;;;17.10;54.80;;;;;;5003577;28;20204;-54
2020/12/25 12:50:52;;;;;;;2.90;1.10;;;17.10;54.70;;;;;;4985424;28;20317;-54